Time;durP1;ratioP1;P1;durP2;ratioP2;P2;SDS_P1;SDS_P2;PMS_P1;PMS_P2;Temp;Humidity;BMP_temperature;BMP_pressure;BME280_temperature;BME280_humidity;BME280_pressure;Samples;Min_cycle;Max_cycle;Signal;HPM_P1;HPM_P2
2022/02/26 00:00:39;;;;;;;8.00;3.60;;;;;;;9.29;48.03;102752.06;5045239;28;20167;-78
2022/02/26 00:03:06;;;;;;;7.63;3.05;;;;;;;9.27;48.26;102749.41;5048652;28;20099;-78
2022/02/26 00:05:34;;;;;;;8.30;3.33;;;;;;;9.26;47.86;102749.44;5050067;28;20049;-77
2022/02/26 00:08:01;;;;;;;8.77;3.80;;;;;;;9.25;48.05;102758.50;5031798;28;20142;-79
2022/02/26 00:10:32;;;;;;;7.45;2.85;;;;;;;9.23;48.01;102772.09;5044987;28;20099;-78
2022/02/26 00:12:58;;;;;;;9.18;3.28;;;;;;;9.23;48.24;102773.94;5066380;28;20557;-78
2022/02/26 00:15:25;;;;;;;8.57;3.60;;;;;;;9.23;48.02;102780.25;5040254;28;20456;-79
2022/02/26 00:17:52;;;;;;;7.05;2.97;;;;;;;9.23;48.20;102782.94;5048877;28;20045;-78
2022/02/26 00:20:19;;;;;;;10.68;4.05;;;;;;;9.21;48.09;102789.38;5052456;28;20052;-79
2022/02/26 00:22:45;;;;;;;8.60;3.47;;;;;;;9.21;48.22;102794.78;5063803;28;20085;-78
2022/02/26 00:25:12;;;;;;;8.60;3.05;;;;;;;9.20;48.05;102806.56;5052664;28;20067;-78
2022/02/26 00:27:40;;;;;;;10.32;3.25;;;;;;;9.17;48.12;102802.13;5070998;28;20057;-78
2022/02/26 00:30:07;;;;;;;8.15;3.20;;;;;;;9.16;48.20;102806.63;5048254;28;20135;-79
2022/02/26 00:32:34;;;;;;;7.18;3.13;;;;;;;9.14;48.15;102803.06;5051433;28;20317;-78
2022/02/26 00:35:01;;;;;;;6.00;3.22;;;;;;;9.13;48.27;102814.00;5048822;28;20052;-78
2022/02/26 00:37:27;;;;;;;9.15;3.13;;;;;;;9.13;48.14;102822.13;5060790;28;20055;-79
2022/02/26 00:39:54;;;;;;;6.93;3.22;;;;;;;9.12;48.28;102817.63;5048257;28;20083;-79
2022/02/26 00:42:21;;;;;;;7.60;3.00;;;;;;;9.09;48.18;102824.03;5032433;28;20049;-79
2022/02/26 00:44:48;;;;;;;8.63;3.45;;;;;;;9.09;48.31;102831.25;5038956;28;20416;-77
2022/02/26 00:47:14;;;;;;;9.57;3.83;;;;;;;9.09;48.53;102831.25;5046973;28;20304;-79
2022/02/26 00:49:47;;;;;;;6.97;3.80;;;;;;;9.08;48.64;102826.78;5052054;28;20597;-79
2022/02/26 00:52:18;;;;;;;8.27;3.53;;;;;;;9.08;48.80;102834.91;5052848;28;20053;-79
2022/02/26 00:54:48;;;;;;;7.47;3.47;;;;;;;9.06;48.67;102839.47;5023980;28;20050;-78
2022/02/26 00:57:15;;;;;;;6.47;3.47;;;;;;;9.07;48.57;102846.66;4998527;28;20045;-79
2022/02/26 00:59:42;;;;;;;7.47;3.58;;;;;;;9.06;48.65;102847.59;5047972;28;20088;-79
2022/02/26 01:02:09;;;;;;;11.40;3.88;;;;;;;9.06;48.75;102850.31;5039385;28;20099;-79
2022/02/26 01:04:38;;;;;;;8.98;3.63;;;;;;;9.06;48.60;102842.16;5043068;28;20496;-79
2022/02/26 01:07:05;;;;;;;10.85;3.97;;;;;;;9.05;48.33;102840.44;5060767;28;20053;-79
2022/02/26 01:09:33;;;;;;;8.40;3.67;;;;;;;9.05;48.52;102849.44;5053426;28;20056;-77
2022/02/26 01:12:00;;;;;;;9.48;4.32;;;;;;;9.04;48.49;102852.19;5053416;28;20100;-77
2022/02/26 01:14:27;;;;;;;8.27;4.13;;;;;;;9.03;48.59;102853.13;5030631;28;20048;-77
2022/02/26 01:16:57;;;;;;;9.68;4.57;;;;;;;9.03;48.45;102851.31;5044594;28;20049;-77
2022/02/26 01:19:24;;;;;;;10.50;5.15;;;;;;;9.02;48.48;102845.91;5043986;28;20063;-77
2022/02/26 01:22:34;;;;;;;11.13;5.93;;;;;;;9.02;49.15;102845.91;5054864;28;20044;-77
2022/02/26 01:25:01;;;;;;;10.55;6.15;;;;;;;8.97;48.75;102846.06;5027361;28;20080;-77
2022/02/26 01:27:27;;;;;;;11.27;6.60;;;;;;;8.98;48.91;102845.09;5049200;28;20489;-77
2022/02/26 01:29:54;;;;;;;10.80;6.97;;;;;;;8.98;48.74;102844.22;5032016;28;20144;-77
2022/02/26 01:32:21;;;;;;;12.68;7.13;;;;;;;8.98;48.76;102841.50;5048435;28;20045;-78
2022/02/26 01:34:47;;;;;;;11.50;7.50;;;;;;;8.98;48.76;102849.63;5019733;28;20053;-79
2022/02/26 01:37:14;;;;;;;12.13;7.80;;;;;;;8.98;48.93;102849.63;5042524;28;20052;-78
2022/02/26 01:39:40;;;;;;;10.35;6.63;;;;;;;8.97;48.77;102851.47;5048086;28;20111;-78
2022/02/26 01:42:07;;;;;;;10.77;6.72;;;;;;;8.97;48.89;102858.72;5045509;28;20095;-79
2022/02/26 01:44:37;;;;;;;11.02;7.38;;;;;;;8.97;48.84;102861.44;5046534;28;20452;-79
2022/02/26 01:47:06;;;;;;;14.20;7.53;;;;;;;8.97;48.74;102856.00;5021172;28;20060;-79
2022/02/26 01:49:32;;;;;;;13.00;7.93;;;;;;;8.97;48.94;102861.44;5047978;28;20060;-78
2022/02/26 01:51:59;;;;;;;12.32;7.05;;;;;;;8.97;48.87;102867.75;5048641;28;20146;-78
2022/02/26 01:54:26;;;;;;;13.15;7.45;;;;;;;8.97;48.80;102865.03;5034988;28;20064;-78
2022/02/26 01:56:53;;;;;;;10.68;7.32;;;;;;;8.97;48.57;102862.31;5045643;28;20076;-78
2022/02/26 01:59:20;;;;;;;10.60;6.32;;;;;;;8.99;48.79;102859.53;5019587;28;20083;-78
2022/02/26 02:01:47;;;;;;;9.73;6.80;;;;;;;8.97;48.88;102869.56;5038758;28;20398;-78
2022/02/26 02:04:14;;;;;;;9.93;6.95;;;;;;;8.97;48.91;102872.25;5042097;28;20492;-78
2022/02/26 02:06:42;;;;;;;10.60;6.72;;;;;;;8.97;49.13;102866.84;5038257;28;20111;-78
2022/02/26 02:09:10;;;;;;;9.80;6.32;;;;;;;8.97;49.34;102867.75;5031907;28;20389;-78
2022/02/26 02:11:38;;;;;;;9.75;6.35;;;;;;;8.97;49.18;102872.25;5038146;28;20092;-78
2022/02/26 02:14:06;;;;;;;11.48;6.40;;;;;;;8.97;48.91;102869.56;5047132;28;20049;-78
2022/02/26 02:16:37;;;;;;;13.68;6.43;;;;;;;8.98;49.51;102874.00;5051754;28;20132;-78
2022/02/26 02:19:05;;;;;;;9.80;5.78;;;;;;;8.96;49.00;102873.19;5053856;28;20126;-78
2022/02/26 02:21:32;;;;;;;10.60;6.05;;;;;;;8.96;49.21;102882.22;5045133;28;20138;-78
2022/02/26 02:23:59;;;;;;;10.18;5.35;;;;;;;8.96;48.97;102881.31;5050973;28;20149;-78
2022/02/26 02:26:27;;;;;;;10.50;4.85;;;;;;;8.96;49.07;102882.22;5042954;28;20083;-78
2022/02/26 02:28:54;;;;;;;9.77;4.57;;;;;;;8.96;49.06;102887.63;5047855;28;20053;-78
2022/02/26 02:31:21;;;;;;;10.25;4.47;;;;;;;8.95;48.97;102888.56;5040349;28;20476;-78
2022/02/26 02:33:49;;;;;;;8.70;4.28;;;;;;;8.96;48.96;102881.31;5047167;28;20116;-78
2022/02/26 02:36:17;;;;;;;10.43;4.50;;;;;;;8.95;48.74;102884.97;5037440;28;20049;-78
2022/02/26 02:38:43;;;;;;;9.05;4.40;;;;;;;8.95;48.93;102887.66;5043308;28;20516;-78
2022/02/26 02:41:10;;;;;;;10.30;4.30;;;;;;;8.94;48.95;102894.00;5048042;28;20133;-78
2022/02/26 02:43:36;;;;;;;6.55;4.07;;;;;;;8.93;49.10;102887.69;5044574;28;20080;-77
2022/02/26 02:46:03;;;;;;;8.95;4.05;;;;;;;8.93;49.00;102892.22;5041843;28;20049;-78
2022/02/26 02:48:30;;;;;;;11.75;4.45;;;;;;;8.92;49.40;102895.88;5030088;28;20053;-78
2022/02/26 02:50:57;;;;;;;9.00;4.28;;;;;;;8.91;49.00;102892.25;5054237;28;20057;-77
2022/02/26 02:53:24;;;;;;;9.50;4.78;;;;;;;8.92;49.17;102895.88;5048532;28;20500;-78
2022/02/26 02:55:52;;;;;;;10.38;4.63;;;;;;;8.92;49.20;102907.59;5028753;28;20053;-78
2022/02/26 02:58:20;;;;;;;8.23;4.53;;;;;;;8.92;49.14;102898.56;5039464;28;20088;-78
2022/02/26 03:00:48;;;;;;;9.63;4.63;;;;;;;8.92;49.43;102898.56;5020314;28;20124;-78
2022/02/26 03:03:14;;;;;;;9.95;5.50;;;;;;;8.91;49.45;102899.50;5047295;28;21933;-78
2022/02/26 03:05:41;;;;;;;7.90;4.53;;;;;;;8.91;49.44;102902.22;5038612;28;20547;-78
2022/02/26 03:08:08;;;;;;;7.68;4.35;;;;;;;8.90;49.39;102898.63;5062060;28;20087;-78
2022/02/26 03:10:35;;;;;;;8.82;4.72;;;;;;;8.91;49.48;102894.09;5045547;28;20134;-78
2022/02/26 03:13:02;;;;;;;9.02;4.38;;;;;;;8.91;49.19;102897.69;5057917;28;20105;-78
2022/02/26 03:15:29;;;;;;;10.27;4.70;;;;;;;8.92;49.19;102901.28;5040011;28;20049;-78
2022/02/26 03:17:56;;;;;;;9.75;4.72;;;;;;;8.91;49.57;102905.81;5045596;28;20103;-78
2022/02/26 03:20:23;;;;;;;11.52;5.15;;;;;;;8.91;49.05;102900.41;5042067;28;20080;-78
2022/02/26 03:22:50;;;;;;;10.52;5.40;;;;;;;8.89;49.06;102905.00;5041270;28;20049;-78
2022/02/26 03:25:20;;;;;;;10.68;5.60;;;;;;;8.89;49.10;102902.28;5049028;28;20063;-78
2022/02/26 03:27:47;;;;;;;9.27;5.10;;;;;;;8.84;49.31;102901.50;5057212;28;20107;-78
2022/02/26 03:30:13;;;;;;;11.07;5.80;;;;;;;8.83;49.03;102909.66;5032734;28;20073;-78
2022/02/26 03:32:40;;;;;;;9.05;5.10;;;;;;;8.82;49.12;102906.06;5039110;28;20136;-78
2022/02/26 03:35:08;;;;;;;10.60;5.32;;;;;;;8.81;49.14;102904.31;5050334;28;20115;-78
2022/02/26 03:37:34;;;;;;;10.23;5.32;;;;;;;8.79;49.06;102903.44;5028882;28;20103;-78
2022/02/26 03:40:02;;;;;;;9.65;5.90;;;;;;;8.77;48.95;102906.19;5050243;28;20080;-78
2022/02/26 03:42:29;;;;;;;9.52;4.93;;;;;;;8.73;48.80;102904.47;5057173;28;20072;-78
2022/02/26 03:44:56;;;;;;;9.85;5.30;;;;;;;8.71;48.68;102910.88;5050935;28;20140;-78
2022/02/26 03:47:22;;;;;;;9.07;5.55;;;;;;;8.68;48.78;102906.44;5029306;28;20053;-78
2022/02/26 03:49:51;;;;;;;9.50;4.47;;;;;;;8.65;48.85;102900.19;5049331;28;20079;-78
2022/02/26 03:52:20;;;;;;;12.48;5.63;;;;;;;8.62;48.72;102905.72;5047955;28;20052;-78
2022/02/26 03:54:46;;;;;;;9.00;5.00;;;;;;;8.58;48.93;102910.31;5018925;28;20457;-79
2022/02/26 03:57:13;;;;;;;8.55;5.20;;;;;;;8.56;48.71;102917.59;5053976;28;20488;-78
2022/02/26 03:59:40;;;;;;;8.30;5.05;;;;;;;8.53;48.59;102916.78;5050281;28;20458;-78
2022/02/26 04:02:07;;;;;;;9.23;5.07;;;;;;;8.49;48.38;102913.25;5044025;28;20133;-78
2022/02/26 04:04:35;;;;;;;9.98;5.43;;;;;;;8.44;48.25;102911.59;5046579;28;20247;-78
2022/02/26 04:07:04;;;;;;;9.43;5.03;;;;;;;8.39;48.62;102917.13;5032205;28;20493;-78
2022/02/26 04:09:31;;;;;;;8.32;5.05;;;;;;;8.35;48.48;102920.81;5032302;28;20065;-79
2022/02/26 04:11:57;;;;;;;8.40;4.93;;;;;;;8.31;48.83;102927.25;5060154;28;20449;-79
2022/02/26 04:14:24;;;;;;;9.88;5.00;;;;;;;8.29;48.42;102919.13;5045339;28;20110;-78
2022/02/26 04:16:51;;;;;;;8.40;5.40;;;;;;;8.26;48.72;102926.44;5053599;28;20135;-78
2022/02/26 04:19:18;;;;;;;8.00;5.07;;;;;;;8.24;48.62;102928.28;5052116;28;20554;-79
2022/02/26 04:21:47;;;;;;;9.65;5.18;;;;;;;8.21;48.62;102925.66;5047348;28;20085;-78
2022/02/26 04:24:14;;;;;;;8.27;4.72;;;;;;;8.19;48.65;102936.50;5045993;28;20091;-79
2022/02/26 04:26:41;;;;;;;11.45;5.40;;;;;;;8.17;48.83;102943.78;5051749;28;20152;-79
2022/02/26 04:29:07;;;;;;;7.53;4.75;;;;;;;8.16;48.83;102943.81;5032284;28;20057;-79
2022/02/26 04:31:34;;;;;;;8.38;5.15;;;;;;;8.14;48.87;102945.69;5049572;28;20134;-78
2022/02/26 04:34:01;;;;;;;8.77;5.35;;;;;;;8.10;48.36;102943.94;5051558;28;20435;-79
2022/02/26 04:36:28;;;;;;;9.55;5.03;;;;;;;8.06;48.45;102934.16;5050836;28;20069;-79
2022/02/26 04:38:54;;;;;;;9.65;4.88;;;;;;;8.01;48.19;102929.72;5044956;28;20459;-79
2022/02/26 04:41:21;;;;;;;10.98;5.00;;;;;;;7.97;48.51;102938.84;5039829;28;20045;-79
2022/02/26 04:43:48;;;;;;;10.98;5.40;;;;;;;7.91;48.52;102949.78;5044387;28;20111;-79
2022/02/26 04:46:14;;;;;;;10.15;4.85;;;;;;;7.89;48.52;102950.75;5049017;28;20492;-79
2022/02/26 04:48:41;;;;;;;8.63;4.78;;;;;;;7.83;48.47;102951.75;5033571;28;20108;-78
2022/02/26 04:51:08;;;;;;;8.20;4.50;;;;;;;7.80;48.61;102949.16;5053078;28;20060;-79
2022/02/26 04:53:37;;;;;;;8.32;4.85;;;;;;;7.79;48.85;102950.06;5029064;28;20084;-79
2022/02/26 04:56:05;;;;;;;9.82;4.78;;;;;;;7.76;48.64;102949.22;5042873;28;20083;-79
2022/02/26 04:58:33;;;;;;;9.55;4.75;;;;;;;7.74;48.69;102951.09;5033727;28;20053;-78
2022/02/26 05:01:00;;;;;;;9.95;4.60;;;;;;;7.70;48.69;102957.47;5030497;28;20419;-79
2022/02/26 05:03:26;;;;;;;10.95;4.65;;;;;;;7.68;48.40;102954.81;5057658;28;20048;-78
2022/02/26 05:05:53;;;;;;;9.35;5.22;;;;;;;7.64;48.64;102951.28;5046557;28;20064;-79
2022/02/26 05:08:20;;;;;;;12.20;4.93;;;;;;;7.63;48.63;102957.63;5050802;28;20140;-79
2022/02/26 05:10:47;;;;;;;10.77;4.82;;;;;;;7.60;48.58;102957.66;5038018;28;20172;-79
2022/02/26 05:13:13;;;;;;;9.70;5.05;;;;;;;7.58;48.60;102956.81;5049229;28;20097;-79
2022/02/26 05:15:41;;;;;;;8.55;5.35;;;;;;;7.56;48.60;102946.97;5051465;28;20106;-79
2022/02/26 05:18:10;;;;;;;10.77;5.40;;;;;;;7.53;48.53;102958.72;5045371;28;20520;-78
2022/02/26 05:20:37;;;;;;;9.07;5.03;;;;;;;7.50;48.96;102960.59;5054778;28;20548;-79
2022/02/26 05:23:04;;;;;;;9.57;5.15;;;;;;;7.50;48.80;102969.59;5050576;28;20488;-78
2022/02/26 05:25:30;;;;;;;9.38;4.95;;;;;;;7.48;48.99;102963.34;5043197;28;20049;-79
2022/02/26 05:27:57;;;;;;;8.25;4.95;;;;;;;7.45;49.19;102962.50;5020073;28;20049;-79
2022/02/26 05:30:24;;;;;;;9.75;4.82;;;;;;;7.46;49.51;102967.00;5044760;28;20505;-79
2022/02/26 05:32:50;;;;;;;12.63;5.63;;;;;;;7.46;49.39;102967.88;5044605;28;20091;-79
2022/02/26 05:35:17;;;;;;;11.32;5.60;;;;;;;7.48;49.26;102976.84;5041616;28;20053;-79
2022/02/26 05:37:44;;;;;;;12.38;5.15;;;;;;;7.49;49.18;102972.34;5045574;28;20087;-78
2022/02/26 05:40:11;;;;;;;8.82;4.90;;;;;;;7.49;49.25;102975.94;5042002;28;20146;-79
2022/02/26 05:42:37;;;;;;;9.15;4.97;;;;;;;7.49;49.46;102986.75;5036909;28;20102;-78
2022/02/26 05:45:05;;;;;;;6.82;4.68;;;;;;;7.50;49.32;102991.22;5050155;28;20150;-78
2022/02/26 05:47:31;;;;;;;11.23;5.38;;;;;;;7.51;49.81;102984.88;5040113;28;20049;-79
2022/02/26 05:49:58;;;;;;;10.57;5.70;;;;;;;7.53;49.63;102982.16;5025307;28;20103;-79
2022/02/26 05:52:24;;;;;;;9.55;5.57;;;;;;;7.56;49.46;102995.63;5045223;28;20115;-79
2022/02/26 05:54:51;;;;;;;10.05;5.38;;;;;;;7.59;49.72;102998.25;5036793;28;20122;-79
2022/02/26 05:57:17;;;;;;;11.48;5.70;;;;;;;7.61;49.67;103005.41;5049459;28;20114;-78
2022/02/26 05:59:44;;;;;;;11.70;5.88;;;;;;;7.64;49.88;103017.97;5045528;28;20119;-79
2022/02/26 06:02:13;;;;;;;9.68;5.20;;;;;;;7.66;49.97;103023.38;5036222;28;20057;-79
2022/02/26 06:04:40;;;;;;;12.50;6.18;;;;;;;7.69;49.90;103020.59;5040532;28;20061;-79
2022/02/26 06:07:09;;;;;;;13.45;6.00;;;;;;;7.71;50.00;103030.44;5061295;28;20052;-79
2022/02/26 06:09:35;;;;;;;13.32;6.32;;;;;;;7.75;49.72;103034.84;5054824;28;20057;-79
2022/02/26 06:12:02;;;;;;;13.32;6.95;;;;;;;7.78;49.96;103036.63;5035380;28;20110;-78
2022/02/26 06:14:29;;;;;;;12.23;6.30;;;;;;;7.79;49.75;103039.28;5047571;28;20056;-79
2022/02/26 06:16:56;;;;;;;13.95;6.18;;;;;;;7.80;49.63;103041.09;5048540;28;20052;-78
2022/02/26 06:19:22;;;;;;;16.40;7.28;;;;;;;7.82;49.73;103033.84;5046150;28;20055;-78
2022/02/26 06:21:49;;;;;;;21.92;7.57;;;;;;;7.85;49.83;103047.28;5048972;28;20535;-79
2022/02/26 06:24:17;;;;;;;15.98;7.70;;;;;;;7.89;50.17;103053.53;5047613;28;20052;-78
2022/02/26 06:26:43;;;;;;;20.00;8.07;;;;;;;7.90;49.95;103052.59;5046565;28;20056;-79
2022/02/26 06:29:10;;;;;;;21.73;9.00;;;;;;;7.91;50.04;103054.34;5045729;28;20065;-79
2022/02/26 06:31:38;;;;;;;22.13;9.13;;;;;;;7.95;49.85;103061.50;5045498;28;20523;-78
2022/02/26 06:34:05;;;;;;;19.70;8.13;;;;;;;7.96;49.94;103063.28;5045559;28;20077;-79
2022/02/26 06:36:33;;;;;;;21.70;8.60;;;;;;;7.97;49.98;103065.97;5043532;28;20087;-78
2022/02/26 06:39:01;;;;;;;20.85;8.40;;;;;;;7.99;49.80;103068.63;5033151;28;20049;-78
2022/02/26 06:41:28;;;;;;;25.23;9.82;;;;;;;7.98;49.43;103065.06;5059131;28;20049;-78
2022/02/26 06:43:56;;;;;;;20.20;8.68;;;;;;;7.98;49.67;103070.47;5045805;28;20119;-78
2022/02/26 06:46:23;;;;;;;21.17;9.70;;;;;;;7.98;49.56;103069.56;5048865;28;20101;-78
2022/02/26 06:48:50;;;;;;;22.95;9.45;;;;;;;7.97;50.01;103071.38;5035578;28;20529;-77
2022/02/26 06:51:16;;;;;;;20.27;9.45;;;;;;;7.96;49.68;103077.72;5045804;28;20056;-78
2022/02/26 06:53:43;;;;;;;23.45;8.50;;;;;;;7.96;50.00;103077.72;5047697;28;20061;-78
2022/02/26 06:56:10;;;;;;;19.35;8.98;;;;;;;7.98;50.01;103077.69;5028193;28;20496;-77
2022/02/26 06:59:07;;;;;;;21.30;9.70;;;;;;;7.98;50.84;103073.16;5050055;28;20061;-77
2022/02/26 07:01:34;;;;;;;23.90;10.13;;;;;;;7.95;50.20;103084.03;5027496;28;20096;-77
2022/02/26 07:04:02;;;;;;;21.20;10.32;;;;;;;7.97;50.02;103094.84;5028309;28;20143;-77
2022/02/26 07:06:28;;;;;;;24.83;10.50;;;;;;;7.98;50.13;103091.22;5030936;28;20076;-77
2022/02/26 07:08:55;;;;;;;19.58;9.57;;;;;;;7.97;50.15;103094.84;5043599;28;20088;-77
2022/02/26 07:11:21;;;;;;;22.75;9.45;;;;;;;7.99;50.57;103095.66;5042636;28;20051;-77
2022/02/26 07:13:48;;;;;;;17.85;9.25;;;;;;;8.00;50.82;103103.75;5033994;28;20077;-77
2022/02/26 07:16:15;;;;;;;22.33;10.40;;;;;;;8.01;50.53;103110.94;5044079;28;20455;-77
2022/02/26 07:18:42;;;;;;;25.90;9.70;;;;;;;8.03;50.33;103108.22;5045437;28;20061;-76
2022/02/26 07:21:08;;;;;;;22.35;9.43;;;;;;;8.02;50.51;103110.03;5053002;28;20048;-77
2022/02/26 07:23:35;;;;;;;23.38;10.23;;;;;;;8.05;50.53;103110.91;5041695;28;20146;-77
2022/02/26 07:26:03;;;;;;;21.98;9.93;;;;;;;8.08;50.76;103110.81;5050853;28;20127;-77
2022/02/26 07:28:29;;;;;;;24.50;10.57;;;;;;;8.08;50.63;103111.72;5057133;28;20444;-77
2022/02/26 07:30:56;;;;;;;21.20;9.77;;;;;;;8.10;50.68;103119.81;5035025;28;20041;-76
2022/02/26 07:33:23;;;;;;;26.40;10.80;;;;;;;8.11;50.75;103113.47;5063631;28;20080;-77
2022/02/26 07:35:50;;;;;;;24.75;10.10;;;;;;;8.13;50.67;103120.66;5023678;28;20064;-77
2022/02/26 07:38:17;;;;;;;21.48;10.55;;;;;;;8.15;50.59;103126.03;5049769;28;20060;-76
2022/02/26 07:40:43;;;;;;;24.63;10.75;;;;;;;8.14;50.71;103130.56;5042353;28;20052;-76
2022/02/26 07:43:10;;;;;;;21.42;9.93;;;;;;;8.15;50.71;103131.44;5022137;28;20659;-77
2022/02/26 07:45:37;;;;;;;26.08;10.95;;;;;;;8.16;50.98;103127.78;5032367;28;20454;-75
2022/02/26 07:48:04;;;;;;;24.73;10.68;;;;;;;8.19;50.98;103122.31;5058576;28;20048;-75
2022/02/26 07:50:31;;;;;;;21.05;9.75;;;;;;;8.21;50.96;103128.59;5058268;28;20044;-75
2022/02/26 07:52:58;;;;;;;24.80;11.02;;;;;;;8.24;51.28;103133.94;5052966;28;20175;-76
2022/02/26 07:55:24;;;;;;;26.60;12.20;;;;;;;8.26;51.14;103137.50;5048140;28;20087;-76
2022/02/26 07:57:51;;;;;;;24.35;10.82;;;;;;;8.27;51.12;103129.34;5049870;28;20488;-76
2022/02/26 08:00:18;;;;;;;26.80;11.30;;;;;;;8.30;51.18;103148.25;5043401;28;20114;-76
2022/02/26 08:02:45;;;;;;;28.00;11.02;;;;;;;8.31;51.10;103141.97;5046100;28;20053;-77
2022/02/26 08:05:12;;;;;;;25.08;10.85;;;;;;;8.33;51.02;103139.19;5046783;28;20049;-77
2022/02/26 08:07:43;;;;;;;26.98;11.07;;;;;;;8.32;51.08;103143.72;5042558;28;20150;-76
2022/02/26 08:10:10;;;;;;;29.52;11.23;;;;;;;8.34;51.04;103150.00;5035815;28;20077;-76
2022/02/26 08:12:37;;;;;;;25.27;11.70;;;;;;;8.35;51.10;103149.06;5039140;28;20049;-77
2022/02/26 08:15:03;;;;;;;24.30;11.07;;;;;;;8.36;51.23;103150.84;5034363;28;20141;-76
2022/02/26 08:17:30;;;;;;;24.50;10.63;;;;;;;8.38;51.04;103148.13;5042969;28;20095;-76
2022/02/26 08:19:57;;;;;;;27.20;11.73;;;;;;;8.39;50.89;103149.91;5043310;28;20042;-76
2022/02/26 08:22:23;;;;;;;30.70;11.95;;;;;;;8.40;50.98;103157.06;5048869;28;20075;-76
2022/02/26 08:24:50;;;;;;;26.08;10.85;;;;;;;8.40;50.84;103155.25;5034929;28;20073;-77
2022/02/26 08:27:17;;;;;;;25.70;10.90;;;;;;;8.43;51.17;103161.53;5050365;28;20456;-76
2022/02/26 08:29:43;;;;;;;22.58;9.50;;;;;;;8.42;50.95;103159.75;5062393;28;20083;-76
2022/02/26 08:32:10;;;;;;;24.73;11.35;;;;;;;8.44;50.85;103168.75;5043419;28;20057;-76
2022/02/26 08:34:36;;;;;;;28.02;11.68;;;;;;;8.43;51.10;103165.16;5027393;28;20447;-76
2022/02/26 08:37:06;;;;;;;25.17;11.05;;;;;;;8.46;51.65;103167.81;5028278;28;20048;-76
2022/02/26 08:39:32;;;;;;;25.70;11.40;;;;;;;8.46;51.16;103164.19;5048403;28;20274;-76
2022/02/26 08:42:01;;;;;;;30.42;12.75;;;;;;;8.46;51.23;103166.91;5047414;28;20155;-76
2022/02/26 08:44:28;;;;;;;29.35;11.55;;;;;;;8.47;51.17;103166.00;5030560;28;20126;-76
2022/02/26 08:46:55;;;;;;;31.15;12.75;;;;;;;8.45;50.86;103168.72;5048711;28;20065;-76
2022/02/26 08:49:22;;;;;;;30.65;12.98;;;;;;;8.47;51.20;103182.22;5041683;28;20049;-77
2022/02/26 08:51:49;;;;;;;32.20;13.43;;;;;;;8.47;50.79;103195.75;5050304;28;20077;-77
2022/02/26 08:54:15;;;;;;;26.92;12.07;;;;;;;8.47;50.84;103185.84;5040800;28;20048;-76
2022/02/26 08:56:42;;;;;;;28.75;11.88;;;;;;;8.47;50.88;103187.66;5041536;28;20049;-76
2022/02/26 08:59:09;;;;;;;34.55;11.98;;;;;;;8.46;50.88;103188.56;5042823;28;20535;-76
2022/02/26 09:01:36;;;;;;;28.33;12.05;;;;;;;8.45;50.92;103190.38;5039634;28;20053;-76
2022/02/26 09:04:04;;;;;;;29.05;12.10;;;;;;;8.45;50.83;103194.91;5028392;28;20114;-76
2022/02/26 09:06:31;;;;;;;27.42;11.90;;;;;;;8.41;50.65;103196.75;5045541;28;20049;-76
2022/02/26 09:08:58;;;;;;;29.15;12.20;;;;;;;8.39;50.70;103196.81;5047198;28;20459;-76
2022/02/26 09:11:25;;;;;;;33.15;13.20;;;;;;;8.40;50.71;103192.28;5048802;28;20049;-76
2022/02/26 09:13:53;;;;;;;31.08;12.90;;;;;;;8.38;50.74;103195.03;5049869;28;20076;-76
2022/02/26 09:16:19;;;;;;;29.13;11.35;;;;;;;8.37;50.81;103208.59;5042584;28;20288;-77
2022/02/26 09:18:46;;;;;;;28.85;11.68;;;;;;;8.35;50.79;103196.91;5044141;28;20423;-77
2022/02/26 09:21:13;;;;;;;24.00;10.80;;;;;;;8.35;51.20;103194.19;5048961;28;20076;-76
2022/02/26 09:23:40;;;;;;;25.13;11.32;;;;;;;8.35;51.01;103197.78;5046660;28;20049;-76
2022/02/26 09:26:07;;;;;;;23.95;10.98;;;;;;;8.36;50.98;103201.38;5033961;28;20429;-75
2022/02/26 09:28:39;;;;;;;26.35;11.25;;;;;;;8.35;50.98;103194.19;5048492;28;20061;-76
2022/02/26 09:31:08;;;;;;;25.23;11.98;;;;;;;8.38;51.21;103202.25;5048563;28;20477;-76
2022/02/26 09:33:38;;;;;;;26.08;10.30;;;;;;;8.38;51.32;103207.66;5043108;28;20061;-76
2022/02/26 09:36:06;;;;;;;23.80;10.10;;;;;;;8.39;51.42;103218.47;5039594;28;20131;-76
2022/02/26 09:38:33;;;;;;;25.80;10.77;;;;;;;8.40;51.09;103219.34;5044336;28;20419;-77
2022/02/26 09:41:02;;;;;;;21.40;10.05;;;;;;;8.43;51.25;103215.69;5066211;28;20045;-77
2022/02/26 09:43:29;;;;;;;20.88;9.60;;;;;;;8.45;51.35;103217.44;5049607;28;20492;-77
2022/02/26 09:45:57;;;;;;;21.13;9.77;;;;;;;8.46;51.13;103224.66;5041214;28;20076;-78
2022/02/26 09:48:25;;;;;;;19.70;9.27;;;;;;;8.50;51.07;103229.06;5040406;28;20092;-77
2022/02/26 09:50:51;;;;;;;22.83;9.70;;;;;;;8.47;51.18;103212.91;5045737;28;20492;-78
2022/02/26 09:53:21;;;;;;;18.95;8.30;;;;;;;8.49;51.16;103220.97;5022418;28;20111;-78
2022/02/26 09:55:48;;;;;;;19.30;8.32;;;;;;;8.50;51.47;103225.47;5048553;28;20140;-78
2022/02/26 09:58:15;;;;;;;19.92;9.07;;;;;;;8.51;51.09;103227.25;5047561;28;20132;-78
2022/02/26 10:00:44;;;;;;;15.65;8.40;;;;;;;8.52;50.99;103224.53;5035622;28;20107;-77
2022/02/26 10:03:30;;;;;;;18.33;8.13;;;;;;;8.55;51.63;103226.28;5046037;28;20044;-78
2022/02/26 10:06:17;;;;;;;16.08;6.95;;;;;;;8.53;51.77;103231.72;5036902;28;20499;-76
2022/02/26 10:08:45;;;;;;;15.82;7.93;;;;;;;8.57;51.42;103235.25;5041459;28;20057;-76
2022/02/26 10:11:23;;;;;;;18.02;8.35;;;;;;;8.60;51.79;103219.84;5036307;28;20052;-76
2022/02/26 10:13:50;;;;;;;19.38;8.68;;;;;;;8.59;51.29;103228.88;5052344;28;20283;-76
2022/02/26 10:16:17;;;;;;;16.88;8.02;;;;;;;8.60;51.27;103233.38;5038470;28;20045;-76
2022/02/26 10:18:53;;;;;;;18.55;8.65;;;;;;;8.66;51.93;103235.94;5042914;28;20500;-75
2022/02/26 10:21:32;;;;;;;18.00;8.80;;;;;;;8.68;51.69;103225.09;5047391;28;20465;-76
2022/02/26 10:23:59;;;;;;;20.48;9.05;;;;;;;8.67;51.27;103229.59;5035754;28;20048;-77
2022/02/26 10:26:28;;;;;;;19.70;9.30;;;;;;;8.69;51.39;103229.59;5043674;28;20080;-77
2022/02/26 10:29:12;;;;;;;18.02;8.20;;;;;;;8.73;51.54;103232.19;5050594;28;20049;-76
2022/02/26 10:31:44;;;;;;;14.63;7.70;;;;;;;8.73;51.61;103234.88;5054811;28;20103;-76
2022/02/26 10:34:38;;;;;;;18.60;7.47;;;;;;;8.74;51.88;103228.56;5046470;28;20045;-78
2022/02/26 10:37:09;;;;;;;17.60;8.27;;;;;;;8.80;51.44;103226.66;5055942;28;20370;-77
2022/02/26 10:39:40;;;;;;;16.60;8.68;;;;;;;8.86;51.88;103226.50;5026602;28;20061;-77
2022/02/26 10:42:36;;;;;;;18.75;8.68;;;;;;;8.93;51.51;103223.63;5049697;28;20098;-77
2022/02/26 10:45:14;;;;;;;13.73;7.38;;;;;;;8.97;51.37;103232.59;5064575;28;20044;-77
2022/02/26 10:47:43;;;;;;;13.93;6.97;;;;;;;9.01;51.34;103232.47;5041113;28;20075;-76
2022/02/26 10:50:18;;;;;;;15.65;7.25;;;;;;;9.08;51.60;103223.28;5052192;28;20061;-77
2022/02/26 10:53:03;;;;;;;17.63;7.32;;;;;;;9.14;51.36;103227.69;5035940;28;20080;-76
2022/02/26 10:55:53;;;;;;;18.63;8.35;;;;;;;9.19;51.17;103223.03;5041321;28;20061;-76
2022/02/26 10:58:21;;;;;;;18.02;8.52;;;;;;;9.22;51.19;103222.09;5038060;28;20393;-76
2022/02/26 11:00:48;;;;;;;17.10;8.65;;;;;;;9.28;51.21;103227.34;5050276;28;20496;-76
2022/02/26 11:03:17;;;;;;;15.65;8.18;;;;;;;9.33;51.37;103217.28;5036282;28;20126;-76
2022/02/26 11:05:45;;;;;;;21.20;9.60;;;;;;;9.40;51.17;103224.34;5043328;28;20398;-77
2022/02/26 11:08:15;;;;;;;17.80;8.88;;;;;;;9.44;51.13;103213.41;5028427;28;20100;-77
2022/02/26 11:10:44;;;;;;;20.27;9.77;;;;;;;9.50;50.85;103210.53;5048552;28;20064;-77
2022/02/26 11:13:12;;;;;;;19.60;10.35;;;;;;;9.54;51.26;103217.66;5026010;28;20044;-76
2022/02/26 11:15:45;;;;;;;18.98;8.55;;;;;;;9.60;51.00;103204.88;5045696;28;20608;-76
2022/02/26 11:18:15;;;;;;;18.42;9.02;;;;;;;9.67;51.10;103195.66;5054265;28;20384;-76
2022/02/26 11:20:42;;;;;;;23.48;10.60;;;;;;;9.74;51.17;103200.88;5050035;28;20496;-76
2022/02/26 11:23:11;;;;;;;20.42;9.70;;;;;;;9.82;51.23;103196.13;5045042;28;20482;-77
2022/02/26 11:25:38;;;;;;;19.33;9.32;;;;;;;9.88;51.26;103195.97;5052797;28;20077;-76
2022/02/26 11:28:11;;;;;;;18.35;9.00;;;;;;;9.98;50.56;103190.28;5053242;28;20492;-77
2022/02/26 11:30:51;;;;;;;20.98;9.57;;;;;;;10.01;50.80;103193.81;5052355;28;20053;-76